This is the latest recevied weather packets stored in our database for station/object N7NKE. If no packets are shown the sender has not sent any weather packets the latest 10 day(s).
| Time | Temp. | Humidity | Pressure | Rain* | Wind** | Luminosity | Snow |
|---|---|---|---|---|---|---|---|
| 1777668304 | 22.22° C | 52% | 1015.6 hPa | 0 mm | - | 763 W/m² | - |
| 1777663805 | 20° C | 60% | 1016.3 hPa | 0 mm | - | 888 W/m² | - |
| 1777662904 | 20° C | 58% | 1016.3 hPa | 0 mm | - | 821 W/m² | - |
| 1777662604 | 20° C | 61% | 1016.4 hPa | 0 mm | - | 708 W/m² | - |
| 1777661704 | 18.89° C | 61% | 1016.5 hPa | 0 mm | - | 877 W/m² | - |
| 1777661404 | 18.89° C | 59% | 1016.5 hPa | 0 mm | - | 860 W/m² | - |
| 1777658104 | 17.78° C | 64% | 1016.8 hPa | 0 mm | - | 733 W/m² | - |
| 1777655404 | 16.67° C | 69% | 1016.9 hPa | 0 mm | - | 582 W/m² | - |
| 1777654804 | 16.11° C | 69% | 1016.9 hPa | 0 mm | - | 515 W/m² | - |
| 1777653904 | 15.56° C | 71% | 1016.9 hPa | 0 mm | - | 608 W/m² | - |
| 1777653005 | 15° C | 73% | 1017 hPa | 0 mm | - | 422 W/m² | - |
| 1777652404 | 15° C | 74% | 1017.2 hPa | 0 mm | - | 427 W/m² | - |
| 1777652104 | 14.44° C | 74% | 1017.2 hPa | 0 mm | - | 350 W/m² | - |
| 1777650006 | 14.44° C | 75% | 1017.2 hPa | 0 mm | - | 209 W/m² | - |
| 1777649406 | 13.89° C | 77% | 1017.1 hPa | 0 mm | - | 227 W/m² | - |
| 1777648806 | 13.89° C | 78% | 1017 hPa | 0 mm | - | 195 W/m² | - |
| 1777644605 | 10.56° C | 86% | 1016.4 hPa | 0 mm | - | 70 W/m² | - |
| 1777644007 | 10.56° C | 86% | 1016.2 hPa | 0 mm | - | 62 W/m² | - |
| 1777640405 | 10° C | 84% | 1015.9 hPa | 0 mm | - | 0 W/m² | - |
| 1777638905 | 10° C | 83% | 1015.7 hPa | 0 mm | - | 0 W/m² | - |
| 1777638005 | 10.56° C | 82% | 1015.7 hPa | 0 mm | - | 0 W/m² | - |
| 1777632305 | 12.78° C | 75% | 1015.5 hPa | 0 mm | - | 0 W/m² | - |
| 1777630506 | 13.33° C | 73% | 1015.3 hPa | 0 mm | - | 0 W/m² | - |
| 1777629905 | 13.33° C | 72% | 1015.2 hPa | 0 mm | - | 0 W/m² | - |
| 1777627205 | 13.89° C | 69% | 1015 hPa | 0 mm | - | 0 W/m² | - |
* Rain latest hour (hover to see other rain measurements)
** Current wind speed in m/s (hover to see current wind gust speed)